Time;durP1;ratioP1;P1;durP2;ratioP2;P2;SDS_P1;SDS_P2;PMS_P1;PMS_P2;Temp;Humidity;BMP_temperature;BMP_pressure;BME280_temperature;BME280_humidity;BME280_pressure;Samples;Min_cycle;Max_cycle;Signal;HPM_P1;HPM_P2
2022/09/28 00:01:25;;;;;;;7.00;3.65;;;;;;;;;;5041073;28;20041;-85
2022/09/28 00:03:58;;;;;;;10.40;3.90;;;;;;;;;;5041727;28;20072;-84
2022/09/28 00:06:31;;;;;;;7.15;3.85;;;;;;;;;;5040788;28;20041;-84
2022/09/28 00:09:00;;;;;;;9.20;4.07;;;;;;;;;;5024501;28;20128;-84
2022/09/28 00:11:28;;;;;;;8.23;4.03;;;;;;;;;;5041151;28;20103;-84
2022/09/28 00:14:02;;;;;;;7.72;4.32;;;;;;;;;;5040871;28;20917;-84
2022/09/28 00:16:34;;;;;;;8.00;4.07;;;;;;;;;;5006890;28;20535;-84
2022/09/28 00:19:03;;;;;;;9.18;4.35;;;;;;;;;;5041560;28;20037;-84
2022/09/28 00:21:38;;;;;;;10.07;4.25;;;;;;;;;;5040693;28;20146;-84
2022/09/28 00:24:17;;;;;;;9.43;4.35;;;;;;;;;;5026261;28;20040;-84
2022/09/28 00:26:56;;;;;;;8.07;4.60;;;;;;;;;;5040473;28;20041;-84
2022/09/28 00:29:33;;;;;;;10.05;5.15;;;;;;;;;;5041558;28;20051;-84
2022/09/28 00:32:05;;;;;;;9.20;4.07;;;;;;;;;;5024452;28;20044;-84
2022/09/28 00:34:36;;;;;;;7.78;4.63;;;;;;;;;;5023648;28;20159;-84
2022/09/28 00:37:05;;;;;;;7.90;4.28;;;;;;;;;;5025004;28;20036;-84
2022/09/28 00:39:32;;;;;;;10.02;4.80;;;;;;;;;;5040162;28;20645;-85
2022/09/28 00:42:00;;;;;;;8.30;4.70;;;;;;;;;;5017733;28;20032;-84
2022/09/28 00:44:34;;;;;;;8.30;4.47;;;;;;;;;;5037440;28;20130;-84
2022/09/28 00:47:13;;;;;;;10.52;4.60;;;;;;;;;;5039597;28;20047;-84
2022/09/28 00:49:47;;;;;;;8.48;4.60;;;;;;;;;;5040036;28;20670;-84
2022/09/28 00:52:21;;;;;;;8.40;4.65;;;;;;;;;;5022246;28;20045;-84
2022/09/28 00:54:52;;;;;;;9.55;4.50;;;;;;;;;;5024270;28;20050;-83
2022/09/28 00:57:21;;;;;;;6.55;3.80;;;;;;;;;;5016991;28;20056;-84
2022/09/28 00:59:58;;;;;;;6.72;4.28;;;;;;;;;;5023711;28;21016;-84
2022/09/28 01:02:50;;;;;;;9.05;4.75;;;;;;;;;;5008519;28;20037;-84
2022/09/28 01:05:24;;;;;;;9.68;5.05;;;;;;;;;;5016154;28;20048;-84
2022/09/28 01:07:55;;;;;;;8.10;4.53;;;;;;;;;;5023653;28;20159;-83
2022/09/28 01:10:24;;;;;;;12.68;4.82;;;;;;;;;;5022452;28;20037;-83
2022/09/28 01:12:54;;;;;;;9.30;4.63;;;;;;;;;;5007496;28;20977;-84
2022/09/28 01:15:25;;;;;;;7.85;4.60;;;;;;;;;;5022401;28;20106;-84
2022/09/28 01:18:02;;;;;;;11.13;4.55;;;;;;;;;;5045457;28;20041;-84
2022/09/28 01:21:14;;;;;;;9.73;4.45;;;;;;;;;;5044199;28;20466;-84
2022/09/28 01:23:53;;;;;;;7.30;4.20;;;;;;;;;;5025495;28;20952;-84
2022/09/28 01:26:44;;;;;;;8.18;4.63;;;;;;;;;;5026745;28;20899;-84
2022/09/28 01:29:47;;;;;;;7.93;3.95;;;;;;;;;;5011058;28;20045;-83
2022/09/28 01:32:20;;;;;;;8.88;4.70;;;;;;;;;;4929000;28;20455;-83
2022/09/28 01:34:59;;;;;;;7.07;4.43;;;;;;;;;;4942241;28;20043;-84
2022/09/28 01:37:51;;;;;;;7.20;4.22;;;;;;;;;;4944342;28;20059;-83
2022/09/28 01:40:23;;;;;;;9.43;4.68;;;;;;;;;;4941869;28;20053;-83
2022/09/28 01:43:05;;;;;;;8.35;4.47;;;;;;;;;;4945381;28;20055;-84
2022/09/28 01:45:59;;;;;;;6.80;4.20;;;;;;;;;;4928406;28;20078;-84
2022/09/28 01:48:36;;;;;;;8.13;4.65;;;;;;;;;;4927847;28;20190;-84
2022/09/28 01:51:12;;;;;;;8.23;4.57;;;;;;;;;;4942837;28;20050;-84
2022/09/28 01:53:52;;;;;;;8.07;4.68;;;;;;;;;;4930731;28;20055;-84
2022/09/28 01:56:30;;;;;;;10.40;4.55;;;;;;;;;;4928978;29;20070;-84
2022/09/28 01:59:28;;;;;;;8.02;4.78;;;;;;;;;;4941992;28;20621;-84
2022/09/28 02:02:28;;;;;;;8.23;4.63;;;;;;;;;;4926832;28;20064;-84
2022/09/28 02:05:15;;;;;;;8.43;4.32;;;;;;;;;;4940358;28;20051;-84
2022/09/28 02:08:21;;;;;;;9.82;4.45;;;;;;;;;;4954699;28;20047;-84
2022/09/28 02:11:13;;;;;;;9.98;4.97;;;;;;;;;;5043990;28;20417;-84
2022/09/28 02:16:42;;;;;;;7.45;4.40;;;;;;;;;;5039803;28;20043;-84
2022/09/28 02:19:18;;;;;;;7.97;4.30;;;;;;;;;;5025106;28;20040;-84
2022/09/28 02:22:22;;;;;;;9.73;4.38;;;;;;;;;;5041185;28;20060;-84
2022/09/28 02:25:08;;;;;;;8.50;4.93;;;;;;;;;;5034344;28;20049;-84
2022/09/28 02:27:51;;;;;;;8.68;4.22;;;;;;;;;;5023811;28;20785;-84
2022/09/28 02:30:45;;;;;;;9.77;4.63;;;;;;;;;;5040921;28;20040;-83
2022/09/28 02:33:25;;;;;;;8.60;5.03;;;;;;;;;;5023787;28;20037;-84
2022/09/28 02:35:54;;;;;;;9.48;4.55;;;;;;;;;;5024205;28;20045;-83
2022/09/28 02:38:24;;;;;;;9.35;5.65;;;;;;;;;;5038976;28;20505;-84
2022/09/28 02:41:07;;;;;;;9.27;5.60;;;;;;;;;;5030578;28;20147;-84
2022/09/28 02:44:12;;;;;;;10.10;4.82;;;;;;;;;;5024692;28;20033;-84
2022/09/28 02:47:03;;;;;;;9.80;5.25;;;;;;;;;;5042691;28;20473;-84
2022/09/28 02:49:47;;;;;;;12.80;5.35;;;;;;;;;;5009302;28;20083;-84
2022/09/28 02:52:35;;;;;;;9.98;6.03;;;;;;;;;;5024136;28;20033;-84
2022/09/28 02:55:10;;;;;;;13.30;5.78;;;;;;;;;;5040149;28;20048;-83
2022/09/28 02:58:08;;;;;;;8.60;5.18;;;;;;;;;;5018639;28;20060;-84
2022/09/28 03:01:36;;;;;;;8.02;4.63;;;;;;;;;;5010259;28;20119;-83
2022/09/28 03:04:16;;;;;;;8.35;4.47;;;;;;;;;;5005973;28;20033;-84
2022/09/28 03:07:15;;;;;;;10.90;4.88;;;;;;;;;;5024172;28;20148;-84
2022/09/28 03:09:52;;;;;;;10.30;4.55;;;;;;;;;;4995971;28;1317302;-83
2022/09/28 03:12:46;;;;;;;11.63;4.57;;;;;;;;;;5040761;28;20025;-83
2022/09/28 03:15:25;;;;;;;9.73;5.50;;;;;;;;;;5023455;28;20401;-83
2022/09/28 03:17:54;;;;;;;10.02;5.47;;;;;;;;;;5025180;28;20496;-84
2022/09/28 03:20:29;;;;;;;9.85;4.97;;;;;;;;;;5026671;28;20037;-84
2022/09/28 03:23:03;;;;;;;11.05;4.65;;;;;;;;;;5025539;28;20044;-84
2022/09/28 03:25:55;;;;;;;8.27;5.13;;;;;;;;;;5040959;28;20036;-83
2022/09/28 03:28:24;;;;;;;10.52;5.20;;;;;;;;;;5039125;28;20412;-84
2022/09/28 03:30:52;;;;;;;11.73;6.40;;;;;;;;;;5041901;28;20033;-83
2022/09/28 03:33:43;;;;;;;12.48;5.80;;;;;;;;;;5030823;28;20036;-83
2022/09/28 03:36:13;;;;;;;12.02;6.30;;;;;;;;;;5008841;28;20041;-84
2022/09/28 03:39:07;;;;;;;13.70;7.07;;;;;;;;;;5041260;28;20041;-84
2022/09/28 03:41:35;;;;;;;15.32;7.47;;;;;;;;;;5025077;28;20048;-83
2022/09/28 03:44:27;;;;;;;19.77;8.23;;;;;;;;;;5040995;28;20508;-84
2022/09/28 03:46:55;;;;;;;23.02;8.68;;;;;;;;;;5024628;28;20037;-83
2022/09/28 03:49:23;;;;;;;22.60;10.00;;;;;;;;;;5025859;28;20075;-83
2022/09/28 03:51:52;;;;;;;19.15;10.00;;;;;;;;;;5008677;28;20041;-84
2022/09/28 03:54:20;;;;;;;18.35;9.82;;;;;;;;;;5041296;28;20461;-83
2022/09/28 03:56:52;;;;;;;17.85;9.32;;;;;;;;;;5032497;28;20132;-84
2022/09/28 03:59:20;;;;;;;20.90;9.70;;;;;;;;;;5041757;28;20056;-84
2022/09/28 04:01:49;;;;;;;20.55;9.43;;;;;;;;;;5039426;28;20510;-84
2022/09/28 04:04:16;;;;;;;21.55;10.88;;;;;;;;;;5024690;28;20053;-84
2022/09/28 04:06:45;;;;;;;19.20;10.75;;;;;;;;;;5024807;28;20447;-83
2022/09/28 04:09:13;;;;;;;21.95;10.25;;;;;;;;;;5024326;28;20055;-84
2022/09/28 04:11:42;;;;;;;23.35;9.95;;;;;;;;;;5041971;28;20049;-83
2022/09/28 04:17:31;;;;;;;19.38;9.45;;;;;;;;;;5023316;28;20551;-84
2022/09/28 04:20:06;;;;;;;18.27;9.57;;;;;;;;;;5017644;28;20044;-84
2022/09/28 04:22:43;;;;;;;19.50;9.82;;;;;;;;;;5023912;28;20037;-83
2022/09/28 04:25:12;;;;;;;16.45;8.07;;;;;;;;;;5023184;28;20041;-84
2022/09/28 04:30:26;;;;;;;16.65;8.10;;;;;;;;;;5024353;28;20041;-83
2022/09/28 04:33:17;;;;;;;19.13;8.45;;;;;;;;;;5039597;28;20163;-83
2022/09/28 04:35:45;;;;;;;15.77;7.95;;;;;;;;;;5022027;28;20128;-84
2022/09/28 04:38:13;;;;;;;26.63;7.90;;;;;;;;;;5018046;28;20416;-84
2022/09/28 04:41:06;;;;;;;25.95;8.70;;;;;;;;;;5041019;28;20052;-83
2022/09/28 04:43:58;;;;;;;22.25;8.15;;;;;;;;;;4991939;28;20490;-84
2022/09/28 04:46:26;;;;;;;20.67;8.25;;;;;;;;;;5021183;28;20131;-84
2022/09/28 04:49:13;;;;;;;22.55;7.68;;;;;;;;;;5038678;28;20122;-84
2022/09/28 04:51:55;;;;;;;16.83;7.70;;;;;;;;;;5023158;28;20045;-83
2022/09/28 04:54:23;;;;;;;15.73;8.13;;;;;;;;;;5020949;28;20033;-84
2022/09/28 04:56:52;;;;;;;15.05;8.15;;;;;;;;;;5023797;28;20036;-84
2022/09/28 04:59:29;;;;;;;25.42;8.40;;;;;;;;;;5022806;28;20103;-83
2022/09/28 05:01:57;;;;;;;17.83;7.82;;;;;;;;;;5020667;28;20509;-84
2022/09/28 05:05:06;;;;;;;19.45;8.13;;;;;;;;;;4978525;28;20055;-84
2022/09/28 05:07:46;;;;;;;20.45;8.60;;;;;;;;;;4962498;28;20077;-84
2022/09/28 05:10:19;;;;;;;24.83;8.75;;;;;;;;;;4976563;28;20050;-85
2022/09/28 05:12:47;;;;;;;22.50;10.43;;;;;;;;;;4977853;28;20054;-85
2022/09/28 05:15:19;;;;;;;20.67;8.23;;;;;;;;;;4961491;28;20053;-85
2022/09/28 05:17:47;;;;;;;21.42;8.98;;;;;;;;;;4964533;28;20046;-84
2022/09/28 05:20:30;;;;;;;24.58;9.63;;;;;;;;;;4964191;28;20509;-84
2022/09/28 05:23:01;;;;;;;32.80;10.40;;;;;;;;;;4963088;28;20046;-84
2022/09/28 05:25:53;;;;;;;21.63;9.65;;;;;;;;;;4979417;28;20141;-84
2022/09/28 05:28:30;;;;;;;21.30;10.50;;;;;;;;;;4964656;28;20523;-85
2022/09/28 05:31:33;;;;;;;30.02;9.82;;;;;;;;;;4977668;28;20141;-85
2022/09/28 05:34:19;;;;;;;23.08;9.73;;;;;;;;;;4963915;28;20225;-85
2022/09/28 05:36:47;;;;;;;29.20;10.98;;;;;;;;;;4979476;28;20054;-84
2022/09/28 05:39:20;;;;;;;22.60;10.07;;;;;;;;;;4990112;28;20572;-82
2022/09/28 05:42:11;;;;;;;24.35;9.98;;;;;;;;;;5035643;28;20041;-83
2022/09/28 05:45:05;;;;;;;21.65;10.50;;;;;;;;;;5018307;28;20064;-83
2022/09/28 05:47:38;;;;;;;21.42;9.57;;;;;;;;;;5003730;28;20504;-83
2022/09/28 05:53:11;;;;;;;22.38;9.95;;;;;;;;;;5022761;28;20119;-83
2022/09/28 05:55:39;;;;;;;19.98;10.05;;;;;;;;;;5022534;28;20063;-83
2022/09/28 05:58:08;;;;;;;21.48;10.13;;;;;;;;;;5020305;28;20075;-84
2022/09/28 06:00:36;;;;;;;22.38;10.98;;;;;;;;;;5037973;28;20044;-84
2022/09/28 06:03:13;;;;;;;20.88;9.52;;;;;;;;;;5025796;28;20071;-84
2022/09/28 06:05:42;;;;;;;23.80;9.80;;;;;;;;;;5027618;28;20172;-83
2022/09/28 06:08:10;;;;;;;29.48;11.18;;;;;;;;;;5041732;28;20649;-84
2022/09/28 06:10:42;;;;;;;25.13;11.18;;;;;;;;;;5042669;28;20091;-83
2022/09/28 06:13:10;;;;;;;27.10;10.57;;;;;;;;;;5041720;28;20036;-84
2022/09/28 06:16:04;;;;;;;24.48;11.18;;;;;;;;;;5009605;28;20265;-83
2022/09/28 06:19:02;;;;;;;24.65;11.93;;;;;;;;;;5024788;28;20091;-84
2022/09/28 06:21:37;;;;;;;26.60;11.60;;;;;;;;;;5041246;28;20083;-84
2022/09/28 06:24:06;;;;;;;38.53;11.88;;;;;;;;;;5006646;28;20132;-84
2022/09/28 06:26:41;;;;;;;25.88;11.82;;;;;;;;;;5024452;28;20179;-84
2022/09/28 06:29:17;;;;;;;26.77;12.73;;;;;;;;;;5009161;28;20909;-84
2022/09/28 06:31:47;;;;;;;30.40;13.02;;;;;;;;;;5024715;28;20045;-84
2022/09/28 06:34:18;;;;;;;29.15;12.60;;;;;;;;;;5024202;28;20242;-84
2022/09/28 06:36:46;;;;;;;28.33;12.15;;;;;;;;;;5018529;28;20076;-84
2022/09/28 06:39:16;;;;;;;29.10;11.98;;;;;;;;;;5040581;28;20041;-84
2022/09/28 06:41:43;;;;;;;27.90;11.43;;;;;;;;;;5041258;28;20111;-84
2022/09/28 06:44:38;;;;;;;26.95;11.30;;;;;;;;;;5042091;28;20037;-84
2022/09/28 06:47:23;;;;;;;25.15;10.88;;;;;;;;;;5041557;28;20045;-83
2022/09/28 06:50:20;;;;;;;26.95;10.82;;;;;;;;;;5035663;28;20055;-83
2022/09/28 06:53:05;;;;;;;26.20;11.18;;;;;;;;;;5036648;28;20577;-83
2022/09/28 06:55:50;;;;;;;26.17;9.75;;;;;;;;;;5037785;28;20044;-83
2022/09/28 06:58:19;;;;;;;19.92;9.75;;;;;;;;;;5003257;28;20052;-83
2022/09/28 07:00:50;;;;;;;23.40;10.32;;;;;;;;;;5041464;28;20151;-83
2022/09/28 07:03:20;;;;;;;24.38;8.98;;;;;;;;;;5025034;28;20396;-83
2022/09/28 07:05:58;;;;;;;22.23;9.90;;;;;;;;;;5045021;28;20041;-83
2022/09/28 07:09:05;;;;;;;20.25;9.32;;;;;;;;;;4980461;28;20177;-84
2022/09/28 07:12:25;;;;;;;19.33;9.05;;;;;;;;;;5002999;28;20034;-83
2022/09/28 07:15:04;;;;;;;23.95;8.80;;;;;;;;;;4997564;28;20054;-83
2022/09/28 07:17:37;;;;;;;18.45;8.50;;;;;;;;;;4982709;28;20045;-83
2022/09/28 07:20:33;;;;;;;21.75;9.00;;;;;;;;;;4978494;28;20046;-84
2022/09/28 07:23:17;;;;;;;18.83;8.65;;;;;;;;;;4996274;28;21703;-83
2022/09/28 07:26:05;;;;;;;25.83;9.68;;;;;;;;;;4988581;28;20075;-83
2022/09/28 07:29:02;;;;;;;19.35;8.68;;;;;;;;;;4997759;28;20481;-83
2022/09/28 07:31:34;;;;;;;22.17;9.18;;;;;;;;;;4968960;28;20072;-83
2022/09/28 07:34:26;;;;;;;18.58;8.77;;;;;;;;;;4968497;28;20524;-83
2022/09/28 07:37:12;;;;;;;22.77;9.27;;;;;;;;;;4981916;28;20058;-83
2022/09/28 07:42:50;;;;;;;21.10;8.75;;;;;;;;;;5011142;28;20044;-83
2022/09/28 07:45:19;;;;;;;21.35;9.52;;;;;;;;;;5025881;28;20115;-83
2022/09/28 07:47:48;;;;;;;20.48;8.82;;;;;;;;;;5026944;28;20496;-83
2022/09/28 07:50:31;;;;;;;21.40;8.90;;;;;;;;;;5028401;28;20085;-83
2022/09/28 07:53:19;;;;;;;17.90;8.70;;;;;;;;;;5046277;28;20045;-83
2022/09/28 07:56:08;;;;;;;20.05;8.68;;;;;;;;;;5026277;28;20468;-83
2022/09/28 07:58:59;;;;;;;20.90;9.65;;;;;;;;;;5044641;28;20091;-83
2022/09/28 08:01:39;;;;;;;24.27;10.13;;;;;;;;;;5026049;28;20056;-82
2022/09/28 08:04:10;;;;;;;21.15;9.68;;;;;;;;;;5025847;28;20135;-82
2022/09/28 08:06:40;;;;;;;20.90;10.27;;;;;;;;;;5026074;28;20040;-83
2022/09/28 08:09:10;;;;;;;22.83;10.43;;;;;;;;;;5027002;28;20051;-83
2022/09/28 08:12:13;;;;;;;28.90;10.35;;;;;;;;;;4957952;28;20042;-82
2022/09/28 08:15:00;;;;;;;23.73;10.02;;;;;;;;;;4960135;28;20050;-83
2022/09/28 08:17:46;;;;;;;28.30;10.38;;;;;;;;;;4933028;28;20065;-84
2022/09/28 08:23:07;;;;;;;26.20;11.80;;;;;;;;;;4947299;28;20071;-84
2022/09/28 08:25:39;;;;;;;25.13;10.95;;;;;;;;;;4946193;28;20043;-84
2022/09/28 08:28:20;;;;;;;26.15;11.27;;;;;;;;;;4963037;28;20054;-84
2022/09/28 08:30:50;;;;;;;24.05;10.95;;;;;;;;;;4953653;28;20082;-84
2022/09/28 08:33:38;;;;;;;28.23;11.07;;;;;;;;;;4960037;28;20073;-84
2022/09/28 08:36:24;;;;;;;26.13;11.05;;;;;;;;;;4963905;28;20112;-84
2022/09/28 08:39:00;;;;;;;26.25;12.23;;;;;;;;;;4945007;28;20050;-84
2022/09/28 08:42:14;;;;;;;24.90;11.15;;;;;;;;;;4960041;28;20051;-84
2022/09/28 08:45:09;;;;;;;25.42;10.57;;;;;;;;;;4946478;28;20129;-84
2022/09/28 08:51:43;;;;;;;28.30;10.95;;;;;;;;;;5042923;28;20033;-85
2022/09/28 08:54:49;;;;;;;23.00;9.88;;;;;;;;;;5023855;28;20052;-84
2022/09/28 08:57:31;;;;;;;22.85;11.50;;;;;;;;;;5010302;28;20139;-84
2022/09/28 09:00:00;;;;;;;25.80;10.85;;;;;;;;;;5023609;28;20072;-84
2022/09/28 09:02:38;;;;;;;25.02;10.80;;;;;;;;;;5039154;28;20052;-84
2022/09/28 09:05:18;;;;;;;24.83;11.30;;;;;;;;;;5021512;28;20045;-84
2022/09/28 09:08:38;;;;;;;23.30;11.05;;;;;;;;;;5008541;28;20048;-84
2022/09/28 09:12:09;;;;;;;27.08;10.90;;;;;;;;;;5042642;28;20048;-84
2022/09/28 09:15:05;;;;;;;22.75;11.13;;;;;;;;;;5025125;28;20036;-84
2022/09/28 09:17:46;;;;;;;24.20;11.48;;;;;;;;;;5024071;28;20523;-84
2022/09/28 09:20:52;;;;;;;20.88;9.90;;;;;;;;;;5020860;28;20071;-84
2022/09/28 09:23:48;;;;;;;21.45;10.40;;;;;;;;;;5023537;28;20296;-84
2022/09/28 09:26:25;;;;;;;29.67;11.25;;;;;;;;;;5021155;28;20126;-84
2022/09/28 09:29:16;;;;;;;24.85;11.43;;;;;;;;;;5001662;28;20049;-84
2022/09/28 09:32:13;;;;;;;26.10;11.85;;;;;;;;;;5017689;28;20144;-84
2022/09/28 09:35:23;;;;;;;26.60;10.68;;;;;;;;;;5021314;28;20037;-84
2022/09/28 09:38:39;;;;;;;23.20;10.85;;;;;;;;;;5046721;28;20041;-84
2022/09/28 09:41:28;;;;;;;27.45;11.23;;;;;;;;;;5029745;28;20044;-84
2022/09/28 09:44:32;;;;;;;29.38;12.60;;;;;;;;;;5046063;28;20044;-84
2022/09/28 09:47:25;;;;;;;29.20;11.88;;;;;;;;;;5026666;28;20036;-84
2022/09/28 09:50:03;;;;;;;27.23;12.80;;;;;;;;;;5027320;28;20052;-84
2022/09/28 09:52:46;;;;;;;28.00;12.02;;;;;;;;;;5039116;28;20047;-84
2022/09/28 09:55:33;;;;;;;27.73;11.40;;;;;;;;;;5028077;28;20044;-85
2022/09/28 09:58:52;;;;;;;29.15;12.60;;;;;;;;;;5029447;28;20045;-84
2022/09/28 10:01:36;;;;;;;29.52;11.73;;;;;;;;;;5028698;28;20051;-84
2022/09/28 10:04:45;;;;;;;29.77;12.35;;;;;;;;;;5026964;28;20037;-84
2022/09/28 10:07:45;;;;;;;24.55;12.07;;;;;;;;;;5025184;28;20869;-85
2022/09/28 10:10:36;;;;;;;26.48;12.18;;;;;;;;;;5038940;28;20048;-84
2022/09/28 10:13:10;;;;;;;23.10;11.55;;;;;;;;;;5026863;28;20037;-84
2022/09/28 10:15:40;;;;;;;28.17;11.50;;;;;;;;;;5011032;28;20040;-84
2022/09/28 10:18:17;;;;;;;23.40;11.18;;;;;;;;;;5014729;28;20056;-84
2022/09/28 10:21:17;;;;;;;25.52;11.68;;;;;;;;;;5045328;28;20071;-84
2022/09/28 10:24:01;;;;;;;26.10;11.95;;;;;;;;;;5042171;28;20037;-84
2022/09/28 10:26:43;;;;;;;24.83;11.32;;;;;;;;;;5028196;28;20072;-84
2022/09/28 10:29:19;;;;;;;25.50;11.95;;;;;;;;;;5027897;28;20107;-84
2022/09/28 10:31:49;;;;;;;21.88;11.00;;;;;;;;;;5017373;28;20041;-84
2022/09/28 10:34:35;;;;;;;21.35;10.43;;;;;;;;;;5011991;28;20045;-84
2022/09/28 10:37:12;;;;;;;22.38;10.77;;;;;;;;;;5042537;28;20071;-84
2022/09/28 10:40:39;;;;;;;25.67;10.27;;;;;;;;;;4999780;28;20507;-84
2022/09/28 10:43:17;;;;;;;20.38;10.38;;;;;;;;;;5009953;28;20060;-84
2022/09/28 10:45:46;;;;;;;23.00;11.07;;;;;;;;;;5041625;28;20112;-84
2022/09/28 10:48:20;;;;;;;23.17;10.25;;;;;;;;;;5044356;28;20041;-84
2022/09/28 10:51:17;;;;;;;25.23;11.30;;;;;;;;;;5025336;28;20049;-84
2022/09/28 10:54:01;;;;;;;23.40;10.32;;;;;;;;;;4930308;28;20062;-84
2022/09/28 10:56:44;;;;;;;21.95;9.98;;;;;;;;;;4947355;28;20647;-84
2022/09/28 10:59:36;;;;;;;20.27;10.23;;;;;;;;;;4962122;28;20057;-84
2022/09/28 11:02:28;;;;;;;19.92;9.35;;;;;;;;;;4960683;28;20062;-84
2022/09/28 11:05:26;;;;;;;17.42;9.20;;;;;;;;;;4945284;28;20059;-84
2022/09/28 11:08:02;;;;;;;21.73;9.15;;;;;;;;;;4963589;28;20541;-84
2022/09/28 11:10:38;;;;;;;19.00;10.10;;;;;;;;;;4956585;28;20110;-84
2022/09/28 11:13:14;;;;;;;18.08;9.57;;;;;;;;;;4961806;28;20082;-84
2022/09/28 11:15:49;;;;;;;15.82;9.07;;;;;;;;;;4960476;28;20050;-83
2022/09/28 11:18:30;;;;;;;15.85;8.57;;;;;;;;;;4947936;28;20059;-83
2022/09/28 11:21:13;;;;;;;17.77;8.32;;;;;;;;;;4960467;28;20097;-85
2022/09/28 11:24:18;;;;;;;17.40;9.38;;;;;;;;;;4936035;28;20525;-83
2022/09/28 11:26:58;;;;;;;20.17;8.48;;;;;;;;;;4959352;28;20514;-83
2022/09/28 11:29:44;;;;;;;18.58;7.40;;;;;;;;;;4959118;28;20076;-83
2022/09/28 11:32:21;;;;;;;14.90;7.82;;;;;;;;;;5044437;28;20052;-84
2022/09/28 11:35:18;;;;;;;19.98;9.02;;;;;;;;;;5044047;28;20044;-84
2022/09/28 11:37:59;;;;;;;17.80;9.05;;;;;;;;;;5009285;28;20045;-84
2022/09/28 11:41:05;;;;;;;16.38;8.30;;;;;;;;;;5040787;28;21371;-84
2022/09/28 11:43:52;;;;;;;14.80;7.80;;;;;;;;;;5025143;28;20037;-84
2022/09/28 11:46:32;;;;;;;15.63;7.68;;;;;;;;;;5018071;28;20134;-83
2022/09/28 11:49:26;;;;;;;15.02;7.65;;;;;;;;;;5010918;28;20492;-84
2022/09/28 11:52:13;;;;;;;14.05;7.43;;;;;;;;;;5007712;28;20041;-84
2022/09/28 11:55:27;;;;;;;17.35;7.28;;;;;;;;;;5023281;28;20978;-84
2022/09/28 11:58:03;;;;;;;15.95;7.20;;;;;;;;;;5040759;28;20052;-84
2022/09/28 12:00:39;;;;;;;14.95;7.25;;;;;;;;;;5025305;28;20040;-83
2022/09/28 12:03:49;;;;;;;11.73;6.10;;;;;;;;;;5044287;28;20094;-83
2022/09/28 12:06:30;;;;;;;12.10;5.82;;;;;;;;;;5027328;28;20036;-84
2022/09/28 12:09:08;;;;;;;15.77;6.95;;;;;;;;;;5043076;28;20040;-84
2022/09/28 12:12:02;;;;;;;14.32;6.60;;;;;;;;;;5007035;28;20179;-84
2022/09/28 12:14:45;;;;;;;13.23;6.03;;;;;;;;;;5019341;28;20044;-83
2022/09/28 12:17:24;;;;;;;12.55;6.63;;;;;;;;;;5007404;28;20045;-84
2022/09/28 12:20:29;;;;;;;14.30;6.85;;;;;;;;;;5040469;28;20051;-84
2022/09/28 12:23:08;;;;;;;13.80;6.20;;;;;;;;;;5040656;28;20404;-84
2022/09/28 12:25:56;;;;;;;13.40;6.63;;;;;;;;;;5043855;28;20045;-84
2022/09/28 12:28:36;;;;;;;9.38;4.60;;;;;;;;;;5043817;28;20062;-84
2022/09/28 12:31:15;;;;;;;12.25;4.90;;;;;;;;;;5008685;28;20418;-84
2022/09/28 12:33:47;;;;;;;9.77;5.43;;;;;;;;;;5025721;28;20048;-84
2022/09/28 12:36:29;;;;;;;10.40;4.40;;;;;;;;;;5025221;28;20132;-84
2022/09/28 12:39:22;;;;;;;7.03;3.97;;;;;;;;;;5041425;28;20557;-84
2022/09/28 12:42:53;;;;;;;8.77;3.78;;;;;;;;;;5041498;28;20037;-84
2022/09/28 12:46:14;;;;;;;7.60;4.00;;;;;;;;;;4992744;28;20046;-83
2022/09/28 12:49:32;;;;;;;8.43;3.38;;;;;;;;;;4993866;28;20056;-84
2022/09/28 12:52:53;;;;;;;6.05;3.08;;;;;;;;;;4991913;28;21989;-84
2022/09/28 12:55:40;;;;;;;6.68;3.00;;;;;;;;;;4994403;28;20049;-84
2022/09/28 12:58:27;;;;;;;4.63;2.50;;;;;;;;;;4992719;28;20049;-84
2022/09/28 13:01:29;;;;;;;5.32;2.05;;;;;;;;;;4980488;28;20054;-83
2022/09/28 13:04:06;;;;;;;5.28;1.90;;;;;;;;;;4997810;28;20042;-83
2022/09/28 13:07:07;;;;;;;4.53;1.60;;;;;;;;;;4993634;28;20077;-83
2022/09/28 13:10:23;;;;;;;4.38;1.70;;;;;;;;;;4977662;28;20045;-84
2022/09/28 13:13:28;;;;;;;3.33;1.83;;;;;;;;;;5006830;28;20043;-84
2022/09/28 13:16:30;;;;;;;5.13;1.75;;;;;;;;;;5028117;28;20041;-84
2022/09/28 13:19:15;;;;;;;4.43;1.50;;;;;;;;;;5045505;28;20045;-83
2022/09/28 13:21:55;;;;;;;4.50;1.42;;;;;;;;;;5028212;28;20467;-84
2022/09/28 13:24:27;;;;;;;3.70;1.42;;;;;;;;;;5028284;28;20523;-84
2022/09/28 13:27:12;;;;;;;3.03;1.30;;;;;;;;;;5046049;28;20555;-84
2022/09/28 13:29:48;;;;;;;2.30;0.85;;;;;;;;;;5004296;28;20423;-84
2022/09/28 13:32:17;;;;;;;3.38;1.50;;;;;;;;;;5027211;28;20043;-84
2022/09/28 13:34:50;;;;;;;4.38;1.50;;;;;;;;;;5045978;28;20037;-84
2022/09/28 13:37:24;;;;;;;2.75;1.13;;;;;;;;;;5027158;28;20378;-84
2022/09/28 13:39:57;;;;;;;6.53;1.17;;;;;;;;;;5019826;28;20047;-85
2022/09/28 13:42:46;;;;;;;4.32;0.90;;;;;;;;;;5045106;28;20080;-85
2022/09/28 13:45:20;;;;;;;2.55;0.80;;;;;;;;;;5024356;28;20483;-84
2022/09/28 13:48:15;;;;;;;3.80;0.93;;;;;;;;;;5043115;28;20041;-85
2022/09/28 13:51:10;;;;;;;1.80;0.85;;;;;;;;;;5047811;28;20056;-84
2022/09/28 13:54:05;;;;;;;2.97;1.30;;;;;;;;;;5047357;28;20048;-85
2022/09/28 13:56:56;;;;;;;3.33;1.20;;;;;;;;;;5045999;28;20037;-85
2022/09/28 13:59:28;;;;;;;4.53;1.30;;;;;;;;;;5042900;28;20662;-86
2022/09/28 14:02:27;;;;;;;2.42;0.98;;;;;;;;;;5029667;28;20123;-85
2022/09/28 14:05:04;;;;;;;3.70;1.02;;;;;;;;;;5045797;28;20396;-85
2022/09/28 14:07:34;;;;;;;2.88;1.08;;;;;;;;;;5012200;28;20095;-85
2022/09/28 14:10:16;;;;;;;2.65;1.10;;;;;;;;;;5028121;28;20045;-85
2022/09/28 14:12:50;;;;;;;2.05;0.85;;;;;;;;;;5029621;28;20041;-85
2022/09/28 14:15:27;;;;;;;3.38;0.90;;;;;;;;;;5045701;28;20175;-85
2022/09/28 14:18:11;;;;;;;4.43;1.00;;;;;;;;;;5045672;28;20044;-85
2022/09/28 14:21:05;;;;;;;2.05;0.93;;;;;;;;;;5043095;28;20044;-85
2022/09/28 14:24:00;;;;;;;2.80;0.95;;;;;;;;;;5020031;28;20549;-85
2022/09/28 14:26:46;;;;;;;3.22;1.33;;;;;;;;;;5042749;28;20131;-85
2022/09/28 14:29:27;;;;;;;2.05;0.98;;;;;;;;;;5044273;28;20044;-85
2022/09/28 14:32:19;;;;;;;1.83;0.70;;;;;;;;;;5042514;28;20064;-85
2022/09/28 14:35:25;;;;;;;4.25;1.30;;;;;;;;;;5045245;28;20058;-85
2022/09/28 14:41:30;;;;;;;3.47;1.10;;;;;;;;;;5037534;28;20041;-84
2022/09/28 14:44:01;;;;;;;3.15;0.90;;;;;;;;;;5025458;28;20404;-84
2022/09/28 14:46:42;;;;;;;2.78;1.10;;;;;;;;;;5028271;28;20044;-84
2022/09/28 14:49:16;;;;;;;2.65;0.85;;;;;;;;;;5027232;28;20040;-85
2022/09/28 14:51:46;;;;;;;1.95;1.00;;;;;;;;;;5028396;28;20036;-85
2022/09/28 14:54:18;;;;;;;1.60;0.80;;;;;;;;;;5010106;28;20050;-85
2022/09/28 14:57:03;;;;;;;5.47;1.00;;;;;;;;;;5024013;28;20041;-84
2022/09/28 14:59:48;;;;;;;3.53;1.20;;;;;;;;;;5045494;28;20140;-84
2022/09/28 15:02:31;;;;;;;6.05;1.05;;;;;;;;;;5039331;28;20037;-84
2022/09/28 15:05:31;;;;;;;3.58;1.17;;;;;;;;;;5043413;28;20041;-84
2022/09/28 15:08:00;;;;;;;5.18;1.27;;;;;;;;;;5036047;28;20052;-84
2022/09/28 15:10:56;;;;;;;3.40;1.40;;;;;;;;;;5042786;28;20036;-84
2022/09/28 15:14:09;;;;;;;3.25;1.40;;;;;;;;;;5043184;28;20029;-84
2022/09/28 15:16:38;;;;;;;2.40;1.05;;;;;;;;;;5026830;28;20056;-84
2022/09/28 15:19:22;;;;;;;3.38;1.30;;;;;;;;;;5027660;28;20044;-84
2022/09/28 15:21:50;;;;;;;3.92;1.70;;;;;;;;;;5016705;28;20049;-84
2022/09/28 15:24:39;;;;;;;4.65;1.23;;;;;;;;;;5043476;28;20043;-84
2022/09/28 15:27:17;;;;;;;4.45;1.55;;;;;;;;;;5042895;28;20128;-84
2022/09/28 15:30:00;;;;;;;2.95;1.40;;;;;;;;;;5028270;28;20049;-84
2022/09/28 15:32:55;;;;;;;3.25;1.48;;;;;;;;;;5044102;28;20537;-84
2022/09/28 15:35:25;;;;;;;4.22;1.65;;;;;;;;;;5027325;28;20068;-84
2022/09/28 15:37:58;;;;;;;4.00;1.77;;;;;;;;;;5041310;28;20064;-85
2022/09/28 15:40:33;;;;;;;5.07;1.80;;;;;;;;;;5042301;28;20045;-84
2022/09/28 15:43:31;;;;;;;3.88;1.95;;;;;;;;;;5025621;28;20488;-84
2022/09/28 15:46:17;;;;;;;4.55;1.88;;;;;;;;;;5043717;28;20123;-84
2022/09/28 15:48:51;;;;;;;3.20;1.40;;;;;;;;;;5042840;28;20057;-84
2022/09/28 15:51:21;;;;;;;3.05;1.90;;;;;;;;;;5027222;28;20107;-84
2022/09/28 15:53:58;;;;;;;3.60;1.73;;;;;;;;;;5040329;28;20147;-84
2022/09/28 15:56:27;;;;;;;4.00;1.98;;;;;;;;;;5043583;28;20131;-84
2022/09/28 15:59:14;;;;;;;3.63;1.75;;;;;;;;;;5041865;28;20072;-84
2022/09/28 16:01:43;;;;;;;5.00;1.92;;;;;;;;;;5043157;28;20083;-84
2022/09/28 16:04:39;;;;;;;6.57;1.70;;;;;;;;;;5043621;28;20116;-84
2022/09/28 16:07:11;;;;;;;4.35;1.85;;;;;;;;;;5011444;28;20497;-84
2022/09/28 16:09:59;;;;;;;4.03;1.45;;;;;;;;;;5044042;28;20051;-84
2022/09/28 16:12:39;;;;;;;5.47;1.80;;;;;;;;;;5025053;28;20493;-84
2022/09/28 16:15:15;;;;;;;6.28;1.67;;;;;;;;;;5036420;28;20037;-85
2022/09/28 16:17:56;;;;;;;3.58;1.77;;;;;;;;;;5007298;28;20055;-84
2022/09/28 16:20:34;;;;;;;3.08;1.50;;;;;;;;;;5042448;28;20044;-82
2022/09/28 16:23:29;;;;;;;3.38;1.50;;;;;;;;;;5018503;28;20037;-82
2022/09/28 16:26:34;;;;;;;5.38;1.73;;;;;;;;;;5017659;28;20223;-82
2022/09/28 16:29:08;;;;;;;3.60;1.42;;;;;;;;;;5042529;28;20048;-83